sensor_id;sensor_type;location;lat;lon;timestamp;temperature;humidity
10278;DHT22;5184;51.376;7.148;2023-04-03T00:02:00;-0.10;99.90
10278;DHT22;5184;51.376;7.148;2023-04-03T00:04:28;-0.10;99.90
10278;DHT22;5184;51.376;7.148;2023-04-03T00:06:54;-0.10;99.90
10278;DHT22;5184;51.376;7.148;2023-04-03T00:09:21;-0.10;99.90
10278;DHT22;5184;51.376;7.148;2023-04-03T00:11:49;-0.20;99.90
10278;DHT22;5184;51.376;7.148;2023-04-03T00:14:16;-0.20;99.90
10278;DHT22;5184;51.376;7.148;2023-04-03T00:16:43;-0.20;99.90
10278;DHT22;5184;51.376;7.148;2023-04-03T00:19:10;-0.30;99.90
10278;DHT22;5184;51.376;7.148;2023-04-03T00:21:37;-0.30;99.90
10278;DHT22;5184;51.376;7.148;2023-04-03T00:24:03;-0.30;99.90
10278;DHT22;5184;51.376;7.148;2023-04-03T00:26:30;-0.40;99.90
10278;DHT22;5184;51.376;7.148;2023-04-03T00:28:57;-0.40;99.90
10278;DHT22;5184;51.376;7.148;2023-04-03T00:31:24;-0.40;99.90
10278;DHT22;5184;51.376;7.148;2023-04-03T00:33:51;-0.40;1.00
10278;DHT22;5184;51.376;7.148;2023-04-03T00:36:17;-0.40;1.00
10278;DHT22;5184;51.376;7.148;2023-04-03T00:38:45;-0.40;1.00
10278;DHT22;5184;51.376;7.148;2023-04-03T00:41:12;-0.40;1.00
10278;DHT22;5184;51.376;7.148;2023-04-03T00:43:39;-0.40;99.90
10278;DHT22;5184;51.376;7.148;2023-04-03T00:46:06;-0.50;99.90
10278;DHT22;5184;51.376;7.148;2023-04-03T00:48:40;-0.50;1.00
10278;DHT22;5184;51.376;7.148;2023-04-03T00:51:09;-0.50;1.00
10278;DHT22;5184;51.376;7.148;2023-04-03T00:53:37;-0.50;1.00
10278;DHT22;5184;51.376;7.148;2023-04-03T00:56:05;-0.50;1.00
10278;DHT22;5184;51.376;7.148;2023-04-03T00:58:33;-0.50;1.00
10278;DHT22;5184;51.376;7.148;2023-04-03T01:00:58;-0.50;1.00
10278;DHT22;5184;51.376;7.148;2023-04-03T01:03:24;-0.60;1.00
10278;DHT22;5184;51.376;7.148;2023-04-03T01:05:51;-0.50;1.00
10278;DHT22;5184;51.376;7.148;2023-04-03T01:08:18;-0.50;1.00
10278;DHT22;5184;51.376;7.148;2023-04-03T01:10:46;-0.60;1.00
10278;DHT22;5184;51.376;7.148;2023-04-03T01:13:21;-0.60;1.00
10278;DHT22;5184;51.376;7.148;2023-04-03T01:15:46;-0.60;1.00
10278;DHT22;5184;51.376;7.148;2023-04-03T01:18:13;-0.60;1.00
10278;DHT22;5184;51.376;7.148;2023-04-03T01:20:50;-0.60;1.00
10278;DHT22;5184;51.376;7.148;2023-04-03T01:23:16;-0.60;1.00
10278;DHT22;5184;51.376;7.148;2023-04-03T01:25:43;-0.60;1.00
10278;DHT22;5184;51.376;7.148;2023-04-03T01:28:10;-0.60;1.00
10278;DHT22;5184;51.376;7.148;2023-04-03T01:30:36;-0.60;1.00
10278;DHT22;5184;51.376;7.148;2023-04-03T01:33:02;-0.60;1.00
10278;DHT22;5184;51.376;7.148;2023-04-03T01:35:29;-0.70;1.00
10278;DHT22;5184;51.376;7.148;2023-04-03T01:37:56;-0.70;1.00
10278;DHT22;5184;51.376;7.148;2023-04-03T01:40:23;-0.70;1.00
10278;DHT22;5184;51.376;7.148;2023-04-03T01:42:51;-0.70;1.00
10278;DHT22;5184;51.376;7.148;2023-04-03T01:45:18;-0.80;1.00
10278;DHT22;5184;51.376;7.148;2023-04-03T01:47:45;-0.80;1.00
10278;DHT22;5184;51.376;7.148;2023-04-03T01:50:13;-0.80;1.00
10278;DHT22;5184;51.376;7.148;2023-04-03T01:52:39;-0.80;1.00
10278;DHT22;5184;51.376;7.148;2023-04-03T01:55:06;-0.80;1.00
10278;DHT22;5184;51.376;7.148;2023-04-03T01:57:33;-0.80;1.00
10278;DHT22;5184;51.376;7.148;2023-04-03T02:00:00;-0.90;1.00
10278;DHT22;5184;51.376;7.148;2023-04-03T02:02:27;-0.90;1.00
10278;DHT22;5184;51.376;7.148;2023-04-03T02:04:54;-0.90;1.00
10278;DHT22;5184;51.376;7.148;2023-04-03T02:07:21;-0.90;1.00
10278;DHT22;5184;51.376;7.148;2023-04-03T02:09:49;-0.90;1.00
10278;DHT22;5184;51.376;7.148;2023-04-03T02:12:16;-0.90;1.00
10278;DHT22;5184;51.376;7.148;2023-04-03T02:14:44;-1.00;1.00
10278;DHT22;5184;51.376;7.148;2023-04-03T02:17:11;-1.00;1.00
10278;DHT22;5184;51.376;7.148;2023-04-03T02:19:37;-1.00;1.00
10278;DHT22;5184;51.376;7.148;2023-04-03T02:22:04;-1.00;1.00
10278;DHT22;5184;51.376;7.148;2023-04-03T02:24:31;-1.00;1.00
10278;DHT22;5184;51.376;7.148;2023-04-03T02:26:58;-1.00;1.00
10278;DHT22;5184;51.376;7.148;2023-04-03T02:29:25;-0.90;1.00
10278;DHT22;5184;51.376;7.148;2023-04-03T02:31:53;-0.90;1.00
10278;DHT22;5184;51.376;7.148;2023-04-03T02:34:19;-0.90;1.00
10278;DHT22;5184;51.376;7.148;2023-04-03T02:36:46;-0.80;1.00
10278;DHT22;5184;51.376;7.148;2023-04-03T02:39:13;-0.70;1.00
10278;DHT22;5184;51.376;7.148;2023-04-03T02:41:40;-0.70;1.00
10278;DHT22;5184;51.376;7.148;2023-04-03T02:44:09;-0.70;1.00
10278;DHT22;5184;51.376;7.148;2023-04-03T02:46:35;-0.40;1.00
10278;DHT22;5184;51.376;7.148;2023-04-03T02:49:01;-0.70;1.00
10278;DHT22;5184;51.376;7.148;2023-04-03T02:51:28;-0.70;1.00
10278;DHT22;5184;51.376;7.148;2023-04-03T02:53:54;-0.60;1.00
10278;DHT22;5184;51.376;7.148;2023-04-03T02:56:21;-0.70;1.00
10278;DHT22;5184;51.376;7.148;2023-04-03T02:58:48;-0.70;1.00
10278;DHT22;5184;51.376;7.148;2023-04-03T03:01:15;-0.70;1.00
10278;DHT22;5184;51.376;7.148;2023-04-03T03:03:42;-0.70;1.00
10278;DHT22;5184;51.376;7.148;2023-04-03T03:06:10;-0.70;1.00
10278;DHT22;5184;51.376;7.148;2023-04-03T03:08:36;-0.70;1.00
10278;DHT22;5184;51.376;7.148;2023-04-03T03:11:02;-0.70;1.00
10278;DHT22;5184;51.376;7.148;2023-04-03T03:13:29;-0.70;1.00
10278;DHT22;5184;51.376;7.148;2023-04-03T03:15:56;-0.70;1.00
10278;DHT22;5184;51.376;7.148;2023-04-03T03:18:23;-0.70;1.00
10278;DHT22;5184;51.376;7.148;2023-04-03T03:20:54;-0.60;1.00
10278;DHT22;5184;51.376;7.148;2023-04-03T03:23:21;-0.60;1.00
10278;DHT22;5184;51.376;7.148;2023-04-03T03:25:48;-0.70;1.00
10278;DHT22;5184;51.376;7.148;2023-04-03T03:28:15;-0.70;1.00
10278;DHT22;5184;51.376;7.148;2023-04-03T03:30:42;-0.70;1.00
10278;DHT22;5184;51.376;7.148;2023-04-03T03:33:10;-0.70;1.00
10278;DHT22;5184;51.376;7.148;2023-04-03T03:35:37;-0.70;1.00
10278;DHT22;5184;51.376;7.148;2023-04-03T03:38:04;-0.70;1.00
10278;DHT22;5184;51.376;7.148;2023-04-03T03:40:32;-0.70;1.00
10278;DHT22;5184;51.376;7.148;2023-04-03T03:42:58;-0.70;1.00
10278;DHT22;5184;51.376;7.148;2023-04-03T03:45:25;-0.70;1.00
10278;DHT22;5184;51.376;7.148;2023-04-03T03:47:52;-0.60;1.00
10278;DHT22;5184;51.376;7.148;2023-04-03T03:50:18;-0.60;1.00
10278;DHT22;5184;51.376;7.148;2023-04-03T03:52:45;-0.60;1.00
10278;DHT22;5184;51.376;7.148;2023-04-03T03:55:12;-0.70;1.00
10278;DHT22;5184;51.376;7.148;2023-04-03T03:57:39;-0.70;1.00
10278;DHT22;5184;51.376;7.148;2023-04-03T04:00:07;-0.70;1.00
10278;DHT22;5184;51.376;7.148;2023-04-03T04:02:34;-0.70;1.00
10278;DHT22;5184;51.376;7.148;2023-04-03T04:05:01;-0.70;1.00
10278;DHT22;5184;51.376;7.148;2023-04-03T04:07:28;-0.80;1.00
10278;DHT22;5184;51.376;7.148;2023-04-03T04:09:55;-0.80;1.00
10278;DHT22;5184;51.376;7.148;2023-04-03T04:12:23;-0.80;1.00
10278;DHT22;5184;51.376;7.148;2023-04-03T04:14:50;-0.80;1.00
10278;DHT22;5184;51.376;7.148;2023-04-03T04:17:17;-0.90;1.00
10278;DHT22;5184;51.376;7.148;2023-04-03T04:19:43;-0.80;1.00
10278;DHT22;5184;51.376;7.148;2023-04-03T04:22:10;-0.80;1.00
10278;DHT22;5184;51.376;7.148;2023-04-03T04:24:37;-0.90;1.00
10278;DHT22;5184;51.376;7.148;2023-04-03T04:27:05;-0.80;1.00
10278;DHT22;5184;51.376;7.148;2023-04-03T04:29:32;-0.80;1.00
10278;DHT22;5184;51.376;7.148;2023-04-03T04:31:59;-0.90;1.00
10278;DHT22;5184;51.376;7.148;2023-04-03T04:34:26;-0.90;1.00
10278;DHT22;5184;51.376;7.148;2023-04-03T04:36:52;-0.90;1.00
10278;DHT22;5184;51.376;7.148;2023-04-03T04:39:19;-0.90;1.00
10278;DHT22;5184;51.376;7.148;2023-04-03T04:41:46;-0.90;1.00
10278;DHT22;5184;51.376;7.148;2023-04-03T04:44:13;-0.90;1.00
10278;DHT22;5184;51.376;7.148;2023-04-03T04:46:40;-0.90;1.00
10278;DHT22;5184;51.376;7.148;2023-04-03T04:49:07;-0.90;1.00
10278;DHT22;5184;51.376;7.148;2023-04-03T04:51:34;-0.90;1.00
10278;DHT22;5184;51.376;7.148;2023-04-03T04:54:01;-0.90;1.00
10278;DHT22;5184;51.376;7.148;2023-04-03T04:56:28;-0.90;1.00
10278;DHT22;5184;51.376;7.148;2023-04-03T04:58:54;-0.90;1.00
10278;DHT22;5184;51.376;7.148;2023-04-03T05:01:22;-1.00;1.00
10278;DHT22;5184;51.376;7.148;2023-04-03T05:03:49;-0.90;1.00
10278;DHT22;5184;51.376;7.148;2023-04-03T05:06:16;-0.90;1.00
10278;DHT22;5184;51.376;7.148;2023-04-03T05:08:43;-0.90;1.00
10278;DHT22;5184;51.376;7.148;2023-04-03T05:11:10;-0.90;1.00
10278;DHT22;5184;51.376;7.148;2023-04-03T05:13:37;-0.90;1.00
10278;DHT22;5184;51.376;7.148;2023-04-03T05:16:05;-0.90;1.00
10278;DHT22;5184;51.376;7.148;2023-04-03T05:18:33;-0.90;1.00
10278;DHT22;5184;51.376;7.148;2023-04-03T05:20:59;-0.90;1.00
10278;DHT22;5184;51.376;7.148;2023-04-03T05:23:26;-0.90;1.00
10278;DHT22;5184;51.376;7.148;2023-04-03T05:25:53;-0.90;1.00
10278;DHT22;5184;51.376;7.148;2023-04-03T05:28:19;-0.90;1.00
10278;DHT22;5184;51.376;7.148;2023-04-03T05:30:52;-0.90;1.00
10278;DHT22;5184;51.376;7.148;2023-04-03T05:33:13;-0.90;1.00
10278;DHT22;5184;51.376;7.148;2023-04-03T05:35:40;-0.90;1.00
10278;DHT22;5184;51.376;7.148;2023-04-03T05:38:07;-0.90;1.00
10278;DHT22;5184;51.376;7.148;2023-04-03T05:40:33;-0.80;1.00
10278;DHT22;5184;51.376;7.148;2023-04-03T05:43:01;-0.80;1.00
10278;DHT22;5184;51.376;7.148;2023-04-03T05:45:28;-0.80;1.00
10278;DHT22;5184;51.376;7.148;2023-04-03T05:47:55;-0.80;1.00
10278;DHT22;5184;51.376;7.148;2023-04-03T05:50:21;-0.80;1.00
10278;DHT22;5184;51.376;7.148;2023-04-03T05:52:48;-0.80;1.00
10278;DHT22;5184;51.376;7.148;2023-04-03T05:55:14;-0.70;1.00
10278;DHT22;5184;51.376;7.148;2023-04-03T05:57:41;-0.70;1.00
10278;DHT22;5184;51.376;7.148;2023-04-03T06:00:11;-0.70;1.00
10278;DHT22;5184;51.376;7.148;2023-04-03T06:02:36;-0.60;1.00
10278;DHT22;5184;51.376;7.148;2023-04-03T06:05:03;-0.60;1.00
10278;DHT22;5184;51.376;7.148;2023-04-03T06:07:29;-0.50;1.00
10278;DHT22;5184;51.376;7.148;2023-04-03T06:09:56;-0.50;1.00
10278;DHT22;5184;51.376;7.148;2023-04-03T06:12:23;-0.40;1.00
10278;DHT22;5184;51.376;7.148;2023-04-03T06:14:50;-0.40;1.00
10278;DHT22;5184;51.376;7.148;2023-04-03T06:17:17;-0.30;1.00
10278;DHT22;5184;51.376;7.148;2023-04-03T06:19:44;-0.20;1.00
10278;DHT22;5184;51.376;7.148;2023-04-03T06:22:11;-0.20;1.00
10278;DHT22;5184;51.376;7.148;2023-04-03T06:24:38;-0.20;1.00
10278;DHT22;5184;51.376;7.148;2023-04-03T06:27:04;-0.10;1.00
10278;DHT22;5184;51.376;7.148;2023-04-03T06:29:31;0.00;1.00
10278;DHT22;5184;51.376;7.148;2023-04-03T06:31:58;0.00;1.00
10278;DHT22;5184;51.376;7.148;2023-04-03T06:34:25;0.00;1.00
10278;DHT22;5184;51.376;7.148;2023-04-03T06:36:52;0.10;1.00
10278;DHT22;5184;51.376;7.148;2023-04-03T06:39:20;0.10;1.00
10278;DHT22;5184;51.376;7.148;2023-04-03T06:41:48;0.10;1.00
10278;DHT22;5184;51.376;7.148;2023-04-03T06:44:14;0.20;1.00
10278;DHT22;5184;51.376;7.148;2023-04-03T06:46:41;0.30;1.00
10278;DHT22;5184;51.376;7.148;2023-04-03T06:49:07;0.30;99.90
10278;DHT22;5184;51.376;7.148;2023-04-03T06:51:35;0.50;99.90
10278;DHT22;5184;51.376;7.148;2023-04-03T06:54:03;0.50;99.90
10278;DHT22;5184;51.376;7.148;2023-04-03T06:56:29;0.50;99.90
10278;DHT22;5184;51.376;7.148;2023-04-03T06:58:56;0.60;1.00
10278;DHT22;5184;51.376;7.148;2023-04-03T07:01:22;0.70;1.00
10278;DHT22;5184;51.376;7.148;2023-04-03T07:03:49;0.70;99.90
10278;DHT22;5184;51.376;7.148;2023-04-03T07:06:16;0.70;91.20
10278;DHT22;5184;51.376;7.148;2023-04-03T07:08:43;0.80;1.00
10278;DHT22;5184;51.376;7.148;2023-04-03T07:11:10;0.90;99.90
10278;DHT22;5184;51.376;7.148;2023-04-03T07:13:38;1.00;99.90
10278;DHT22;5184;51.376;7.148;2023-04-03T07:16:05;1.00;99.90
10278;DHT22;5184;51.376;7.148;2023-04-03T07:18:33;1.10;1.00
10278;DHT22;5184;51.376;7.148;2023-04-03T07:21:01;1.10;99.90
10278;DHT22;5184;51.376;7.148;2023-04-03T07:23:28;1.20;99.90
10278;DHT22;5184;51.376;7.148;2023-04-03T07:25:55;1.30;99.90
10278;DHT22;5184;51.376;7.148;2023-04-03T07:28:23;1.30;1.00
10278;DHT22;5184;51.376;7.148;2023-04-03T07:30:51;1.40;1.00
10278;DHT22;5184;51.376;7.148;2023-04-03T07:33:18;1.50;1.00
10278;DHT22;5184;51.376;7.148;2023-04-03T07:35:45;1.50;99.90
10278;DHT22;5184;51.376;7.148;2023-04-03T07:38:12;1.60;1.00
10278;DHT22;5184;51.376;7.148;2023-04-03T07:40:39;1.60;1.00
10278;DHT22;5184;51.376;7.148;2023-04-03T07:43:07;1.70;1.00
10278;DHT22;5184;51.376;7.148;2023-04-03T07:45:34;1.80;73.00
10278;DHT22;5184;51.376;7.148;2023-04-03T07:48:01;1.80;1.00
10278;DHT22;5184;51.376;7.148;2023-04-03T07:50:29;1.90;1.00
10278;DHT22;5184;51.376;7.148;2023-04-03T07:52:56;2.00;1.00
10278;DHT22;5184;51.376;7.148;2023-04-03T07:55:24;2.10;99.90
10278;DHT22;5184;51.376;7.148;2023-04-03T07:57:50;2.10;99.90
10278;DHT22;5184;51.376;7.148;2023-04-03T08:00:17;2.10;99.90
10278;DHT22;5184;51.376;7.148;2023-04-03T08:05:25;2.40;1.00
10278;DHT22;5184;51.376;7.148;2023-04-03T08:07:53;2.50;1.00
10278;DHT22;5184;51.376;7.148;2023-04-03T08:10:20;2.50;1.00
10278;DHT22;5184;51.376;7.148;2023-04-03T08:12:47;2.60;99.90
10278;DHT22;5184;51.376;7.148;2023-04-03T08:15:15;2.70;1.00
10278;DHT22;5184;51.376;7.148;2023-04-03T08:17:42;2.80;1.00
10278;DHT22;5184;51.376;7.148;2023-04-03T08:20:09;2.80;1.00
10278;DHT22;5184;51.376;7.148;2023-04-03T08:22:37;2.90;1.00
10278;DHT22;5184;51.376;7.148;2023-04-03T08:25:04;3.00;1.00
10278;DHT22;5184;51.376;7.148;2023-04-03T08:27:31;3.00;1.00
10278;DHT22;5184;51.376;7.148;2023-04-03T08:29:58;3.10;1.00
10278;DHT22;5184;51.376;7.148;2023-04-03T08:32:24;3.10;1.00
10278;DHT22;5184;51.376;7.148;2023-04-03T08:34:52;3.30;99.90
10278;DHT22;5184;51.376;7.148;2023-04-03T08:37:19;3.20;99.90
10278;DHT22;5184;51.376;7.148;2023-04-03T08:39:45;3.30;1.00
10278;DHT22;5184;51.376;7.148;2023-04-03T08:42:19;3.40;1.00
10278;DHT22;5184;51.376;7.148;2023-04-03T08:44:59;3.40;1.00
10278;DHT22;5184;51.376;7.148;2023-04-03T08:47:28;3.50;99.90
10278;DHT22;5184;51.376;7.148;2023-04-03T08:49:52;3.50;99.90
10278;DHT22;5184;51.376;7.148;2023-04-03T08:52:19;3.60;1.00
10278;DHT22;5184;51.376;7.148;2023-04-03T08:54:50;3.70;1.00
10278;DHT22;5184;51.376;7.148;2023-04-03T08:57:16;3.70;1.00
10278;DHT22;5184;51.376;7.148;2023-04-03T08:59:42;3.80;1.00
10278;DHT22;5184;51.376;7.148;2023-04-03T09:02:23;3.90;1.00
10278;DHT22;5184;51.376;7.148;2023-04-03T09:04:50;3.90;99.90
10278;DHT22;5184;51.376;7.148;2023-04-03T09:07:20;4.00;99.90
10278;DHT22;5184;51.376;7.148;2023-04-03T09:09:43;4.10;99.90
10278;DHT22;5184;51.376;7.148;2023-04-03T09:12:21;4.20;99.90
10278;DHT22;5184;51.376;7.148;2023-04-03T09:15:02;4.30;89.30
10278;DHT22;5184;51.376;7.148;2023-04-03T09:17:47;4.30;73.50
10278;DHT22;5184;51.376;7.148;2023-04-03T09:20:22;4.30;99.90
10278;DHT22;5184;51.376;7.148;2023-04-03T09:22:47;4.30;7.30
10278;DHT22;5184;51.376;7.148;2023-04-03T09:25:19;4.30;1.00
10278;DHT22;5184;51.376;7.148;2023-04-03T09:27:44;4.30;1.00
10278;DHT22;5184;51.376;7.148;2023-04-03T09:30:15;4.40;27.30
10278;DHT22;5184;51.376;7.148;2023-04-03T09:32:44;4.50;1.00
10278;DHT22;5184;51.376;7.148;2023-04-03T09:35:26;4.50;1.00
10278;DHT22;5184;51.376;7.148;2023-04-03T09:37:53;4.60;1.00
10278;DHT22;5184;51.376;7.148;2023-04-03T09:40:34;4.70;1.00
10278;DHT22;5184;51.376;7.148;2023-04-03T09:43:02;4.70;1.00
10278;DHT22;5184;51.376;7.148;2023-04-03T09:45:31;4.80;1.00
10278;DHT22;5184;51.376;7.148;2023-04-03T09:48:05;4.90;1.00
10278;DHT22;5184;51.376;7.148;2023-04-03T09:50:30;4.80;1.00
10278;DHT22;5184;51.376;7.148;2023-04-03T09:52:57;5.00;1.00
10278;DHT22;5184;51.376;7.148;2023-04-03T09:55:24;5.00;1.00
10278;DHT22;5184;51.376;7.148;2023-04-03T09:57:54;5.20;1.00
10278;DHT22;5184;51.376;7.148;2023-04-03T10:00:21;5.30;1.00
10278;DHT22;5184;51.376;7.148;2023-04-03T10:02:48;5.40;99.90
10278;DHT22;5184;51.376;7.148;2023-04-03T10:08:08;5.60;99.90
10278;DHT22;5184;51.376;7.148;2023-04-03T10:10:36;5.70;99.90
10278;DHT22;5184;51.376;7.148;2023-04-03T10:13:06;5.80;99.90
10278;DHT22;5184;51.376;7.148;2023-04-03T10:15:34;5.80;99.90
10278;DHT22;5184;51.376;7.148;2023-04-03T10:18:00;5.80;99.90
10278;DHT22;5184;51.376;7.148;2023-04-03T10:20:29;5.90;99.90
10278;DHT22;5184;51.376;7.148;2023-04-03T10:23:32;5.90;99.90
10278;DHT22;5184;51.376;7.148;2023-04-03T10:26:03;6.00;99.90
10278;DHT22;5184;51.376;7.148;2023-04-03T10:28:31;6.00;99.90
10278;DHT22;5184;51.376;7.148;2023-04-03T10:31:18;6.10;99.90
10278;DHT22;5184;51.376;7.148;2023-04-03T10:36:53;6.10;1.00
10278;DHT22;5184;51.376;7.148;2023-04-03T10:39:23;6.10;1.00
10278;DHT22;5184;51.376;7.148;2023-04-03T10:41:54;6.10;99.90
10278;DHT22;5184;51.376;7.148;2023-04-03T10:44:30;6.10;99.90
10278;DHT22;5184;51.376;7.148;2023-04-03T10:47:00;6.30;99.90
10278;DHT22;5184;51.376;7.148;2023-04-03T10:49:35;6.40;8.20
10278;DHT22;5184;51.376;7.148;2023-04-03T10:52:06;6.40;7.60
10278;DHT22;5184;51.376;7.148;2023-04-03T10:54:34;6.50;52.10
10278;DHT22;5184;51.376;7.148;2023-04-03T10:57:03;6.50;12.50
10278;DHT22;5184;51.376;7.148;2023-04-03T10:59:33;6.50;1.00
10278;DHT22;5184;51.376;7.148;2023-04-03T11:01:59;6.50;1.00
10278;DHT22;5184;51.376;7.148;2023-04-03T11:04:26;6.60;1.00
10278;DHT22;5184;51.376;7.148;2023-04-03T11:06:55;6.60;12.30
10278;DHT22;5184;51.376;7.148;2023-04-03T11:09:21;7.00;1.00
10278;DHT22;5184;51.376;7.148;2023-04-03T11:11:46;7.00;1.00
10278;DHT22;5184;51.376;7.148;2023-04-03T11:16:50;6.90;1.00
10278;DHT22;5184;51.376;7.148;2023-04-03T11:19:19;6.90;1.00
10278;DHT22;5184;51.376;7.148;2023-04-03T11:21:45;7.00;1.00
10278;DHT22;5184;51.376;7.148;2023-04-03T11:24:16;7.00;1.00
10278;DHT22;5184;51.376;7.148;2023-04-03T11:26:40;7.10;1.00
10278;DHT22;5184;51.376;7.148;2023-04-03T11:29:08;7.10;1.00
10278;DHT22;5184;51.376;7.148;2023-04-03T11:31:47;7.10;1.00
10278;DHT22;5184;51.376;7.148;2023-04-03T11:34:33;7.10;1.00
10278;DHT22;5184;51.376;7.148;2023-04-03T11:36:59;7.10;1.00
10278;DHT22;5184;51.376;7.148;2023-04-03T11:39:29;7.20;1.00
10278;DHT22;5184;51.376;7.148;2023-04-03T11:41:55;7.20;1.00
10278;DHT22;5184;51.376;7.148;2023-04-03T11:44:28;7.20;1.00
10278;DHT22;5184;51.376;7.148;2023-04-03T11:46:54;7.20;1.00
10278;DHT22;5184;51.376;7.148;2023-04-03T11:52:09;7.30;1.00
10278;DHT22;5184;51.376;7.148;2023-04-03T11:54:49;7.40;1.00
10278;DHT22;5184;51.376;7.148;2023-04-03T11:57:31;7.40;1.00
10278;DHT22;5184;51.376;7.148;2023-04-03T11:59:49;7.40;1.00
10278;DHT22;5184;51.376;7.148;2023-04-03T12:02:35;7.50;1.00
10278;DHT22;5184;51.376;7.148;2023-04-03T12:05:25;7.50;1.00
10278;DHT22;5184;51.376;7.148;2023-04-03T12:10:28;7.60;1.00
10278;DHT22;5184;51.376;7.148;2023-04-03T12:12:55;7.60;1.00
10278;DHT22;5184;51.376;7.148;2023-04-03T12:15:23;7.70;1.00
10278;DHT22;5184;51.376;7.148;2023-04-03T12:17:48;7.80;1.00
10278;DHT22;5184;51.376;7.148;2023-04-03T12:20:55;7.80;1.00
10278;DHT22;5184;51.376;7.148;2023-04-03T12:23:22;7.80;1.00
10278;DHT22;5184;51.376;7.148;2023-04-03T12:25:47;7.60;1.00
10278;DHT22;5184;51.376;7.148;2023-04-03T12:28:06;7.60;1.00
10278;DHT22;5184;51.376;7.148;2023-04-03T12:30:34;7.60;1.00
10278;DHT22;5184;51.376;7.148;2023-04-03T12:33:12;7.70;1.00
10278;DHT22;5184;51.376;7.148;2023-04-03T12:35:35;7.80;1.00
10278;DHT22;5184;51.376;7.148;2023-04-03T12:38:21;7.90;1.00
10278;DHT22;5184;51.376;7.148;2023-04-03T12:40:53;7.90;1.00
10278;DHT22;5184;51.376;7.148;2023-04-03T12:45:59;8.00;1.00
10278;DHT22;5184;51.376;7.148;2023-04-03T12:48:25;8.10;1.00
10278;DHT22;5184;51.376;7.148;2023-04-03T12:50:51;8.20;1.00
10278;DHT22;5184;51.376;7.148;2023-04-03T12:53:21;8.30;1.00
10278;DHT22;5184;51.376;7.148;2023-04-03T12:55:46;8.30;1.00
10278;DHT22;5184;51.376;7.148;2023-04-03T13:00:46;8.20;1.00
10278;DHT22;5184;51.376;7.148;2023-04-03T13:03:21;8.20;1.00
10278;DHT22;5184;51.376;7.148;2023-04-03T13:05:45;8.30;1.00
10278;DHT22;5184;51.376;7.148;2023-04-03T13:08:12;8.20;1.00
10278;DHT22;5184;51.376;7.148;2023-04-03T13:10:47;8.30;1.00
10278;DHT22;5184;51.376;7.148;2023-04-03T13:13:14;8.30;1.00
10278;DHT22;5184;51.376;7.148;2023-04-03T13:15:43;8.30;1.00
10278;DHT22;5184;51.376;7.148;2023-04-03T13:18:25;8.30;1.00
10278;DHT22;5184;51.376;7.148;2023-04-03T13:20:50;8.30;1.00
10278;DHT22;5184;51.376;7.148;2023-04-03T13:23:17;8.30;1.00
10278;DHT22;5184;51.376;7.148;2023-04-03T13:25:43;8.40;1.00
10278;DHT22;5184;51.376;7.148;2023-04-03T13:28:10;8.60;1.00
10278;DHT22;5184;51.376;7.148;2023-04-03T13:30:37;8.60;1.00
10278;DHT22;5184;51.376;7.148;2023-04-03T13:33:05;8.60;1.00
10278;DHT22;5184;51.376;7.148;2023-04-03T13:35:35;8.60;1.00
10278;DHT22;5184;51.376;7.148;2023-04-03T13:38:01;8.70;1.00
10278;DHT22;5184;51.376;7.148;2023-04-03T13:40:26;8.70;1.00
10278;DHT22;5184;51.376;7.148;2023-04-03T13:43:02;8.70;1.00
10278;DHT22;5184;51.376;7.148;2023-04-03T13:45:27;8.70;1.00
10278;DHT22;5184;51.376;7.148;2023-04-03T13:48:16;8.80;1.00
10278;DHT22;5184;51.376;7.148;2023-04-03T13:51:01;8.70;1.00
10278;DHT22;5184;51.376;7.148;2023-04-03T13:53:26;8.80;1.00
10278;DHT22;5184;51.376;7.148;2023-04-03T13:55:57;8.90;1.00
10278;DHT22;5184;51.376;7.148;2023-04-03T13:58:23;8.90;1.00
10278;DHT22;5184;51.376;7.148;2023-04-03T14:00:50;8.90;1.00
10278;DHT22;5184;51.376;7.148;2023-04-03T14:03:25;8.90;1.00
10278;DHT22;5184;51.376;7.148;2023-04-03T14:05:51;8.90;1.00
10278;DHT22;5184;51.376;7.148;2023-04-03T14:08:19;9.10;1.00
10278;DHT22;5184;51.376;7.148;2023-04-03T14:10:46;9.20;1.00
10278;DHT22;5184;51.376;7.148;2023-04-03T14:13:13;9.30;1.00
10278;DHT22;5184;51.376;7.148;2023-04-03T14:15:41;9.40;1.00
10278;DHT22;5184;51.376;7.148;2023-04-03T14:18:13;9.40;1.00
10278;DHT22;5184;51.376;7.148;2023-04-03T14:20:39;9.40;1.00
10278;DHT22;5184;51.376;7.148;2023-04-03T14:23:05;9.40;1.00
10278;DHT22;5184;51.376;7.148;2023-04-03T14:25:31;9.30;1.00
10278;DHT22;5184;51.376;7.148;2023-04-03T14:27:58;9.40;1.00
10278;DHT22;5184;51.376;7.148;2023-04-03T14:30:27;9.40;1.00
10278;DHT22;5184;51.376;7.148;2023-04-03T14:32:53;9.40;1.00
10278;DHT22;5184;51.376;7.148;2023-04-03T14:35:20;9.30;1.00
10278;DHT22;5184;51.376;7.148;2023-04-03T14:37:46;9.40;1.00
10278;DHT22;5184;51.376;7.148;2023-04-03T14:40:16;9.60;1.00
10278;DHT22;5184;51.376;7.148;2023-04-03T14:42:40;9.60;1.00
10278;DHT22;5184;51.376;7.148;2023-04-03T14:45:09;9.60;1.00
10278;DHT22;5184;51.376;7.148;2023-04-03T14:47:36;10.00;1.00
10278;DHT22;5184;51.376;7.148;2023-04-03T14:50:03;10.20;1.00
10278;DHT22;5184;51.376;7.148;2023-04-03T14:52:30;10.20;1.00
10278;DHT22;5184;51.376;7.148;2023-04-03T14:54:55;10.90;1.00
10278;DHT22;5184;51.376;7.148;2023-04-03T14:57:25;12.70;1.00
10278;DHT22;5184;51.376;7.148;2023-04-03T14:59:50;12.70;1.00
10278;DHT22;5184;51.376;7.148;2023-04-03T15:02:29;13.70;99.90
10278;DHT22;5184;51.376;7.148;2023-04-03T15:04:55;14.60;99.90
10278;DHT22;5184;51.376;7.148;2023-04-03T15:07:22;14.80;99.90
10278;DHT22;5184;51.376;7.148;2023-04-03T15:09:50;14.70;99.90
10278;DHT22;5184;51.376;7.148;2023-04-03T15:12:17;14.80;99.90
10278;DHT22;5184;51.376;7.148;2023-04-03T15:14:43;14.80;99.90
10278;DHT22;5184;51.376;7.148;2023-04-03T15:17:15;14.90;99.90
10278;DHT22;5184;51.376;7.148;2023-04-03T15:19:41;14.90;99.90
10278;DHT22;5184;51.376;7.148;2023-04-03T15:22:09;14.70;99.90
10278;DHT22;5184;51.376;7.148;2023-04-03T15:24:34;14.80;99.90
10278;DHT22;5184;51.376;7.148;2023-04-03T15:27:00;15.00;99.90
10278;DHT22;5184;51.376;7.148;2023-04-03T15:29:28;14.90;99.90
10278;DHT22;5184;51.376;7.148;2023-04-03T15:31:55;15.00;99.90
10278;DHT22;5184;51.376;7.148;2023-04-03T15:34:22;15.00;99.90
10278;DHT22;5184;51.376;7.148;2023-04-03T15:36:49;15.00;99.90
10278;DHT22;5184;51.376;7.148;2023-04-03T15:39:15;15.00;99.90
10278;DHT22;5184;51.376;7.148;2023-04-03T15:41:42;15.20;99.90
10278;DHT22;5184;51.376;7.148;2023-04-03T15:44:09;15.00;99.90
10278;DHT22;5184;51.376;7.148;2023-04-03T15:46:35;15.10;99.90
10278;DHT22;5184;51.376;7.148;2023-04-03T15:49:02;15.20;99.90
10278;DHT22;5184;51.376;7.148;2023-04-03T15:51:29;15.20;99.90
10278;DHT22;5184;51.376;7.148;2023-04-03T15:53:57;15.30;99.90
10278;DHT22;5184;51.376;7.148;2023-04-03T15:56:23;15.30;99.90
10278;DHT22;5184;51.376;7.148;2023-04-03T15:58:50;15.50;99.90
10278;DHT22;5184;51.376;7.148;2023-04-03T16:01:16;15.80;99.90
10278;DHT22;5184;51.376;7.148;2023-04-03T16:03:43;16.00;99.90
10278;DHT22;5184;51.376;7.148;2023-04-03T16:06:10;16.20;99.90
10278;DHT22;5184;51.376;7.148;2023-04-03T16:08:37;15.60;99.90
10278;DHT22;5184;51.376;7.148;2023-04-03T16:11:03;15.50;99.90
10278;DHT22;5184;51.376;7.148;2023-04-03T16:13:30;15.60;99.90
10278;DHT22;5184;51.376;7.148;2023-04-03T16:15:57;15.60;99.90
10278;DHT22;5184;51.376;7.148;2023-04-03T16:18:23;16.00;99.90
10278;DHT22;5184;51.376;7.148;2023-04-03T16:20:50;15.80;99.90
10278;DHT22;5184;51.376;7.148;2023-04-03T16:23:17;15.70;99.90
10278;DHT22;5184;51.376;7.148;2023-04-03T16:25:45;15.90;99.90
10278;DHT22;5184;51.376;7.148;2023-04-03T16:28:13;15.90;99.90
10278;DHT22;5184;51.376;7.148;2023-04-03T16:30:40;15.80;99.90
10278;DHT22;5184;51.376;7.148;2023-04-03T16:33:06;15.50;99.90